Terminal Aerodrome Forecast
Issued by NWS Lake Charles, LA

Home | Current Version | Previous Version | Text Only | Print | Product List | Glossary On
Versions: 1 2 3 4 5 6 7 8 9 10 11 12 13 14
000
FTUS44 KLCH 070520
TAFLCH
TAF
KLCH 070520Z 0706/0806 18008KT P6SM FEW025
      TEMPO 0710/0714 BKN025
     FM071500 18012G20KT P6SM SCT035
     FM080100 18007KT P6SM FEW035=

USA.gov is the U.S. government's official web portal to all federal, state and local government web resources and services.